createdAt,value
2023-04-08T00:00:47.192Z,52.76
2023-04-08T00:03:14.153Z,52.48
2023-04-08T00:05:41.196Z,52.44
2023-04-08T00:08:08.307Z,52.46
2023-04-08T00:10:35.400Z,52.43
2023-04-08T00:13:02.365Z,52.53
2023-04-08T00:15:29.203Z,52.45
2023-04-08T00:17:56.300Z,52.42
2023-04-08T00:20:24.646Z,52.54
2023-04-08T00:22:51.524Z,52.34
2023-04-08T00:25:18.326Z,52.37
2023-04-08T00:27:45.247Z,52.54
2023-04-08T00:30:12.096Z,52.55
2023-04-08T00:32:39.228Z,52.49
2023-04-08T00:35:06.319Z,52.53
2023-04-08T00:37:34.546Z,52.39
2023-04-08T00:40:01.372Z,52.25
2023-04-08T00:42:30.752Z,52.26
2023-04-08T00:44:58.156Z,51.90
2023-04-08T00:47:25.731Z,52.02
2023-04-08T00:49:52.787Z,51.86
2023-04-08T00:52:19.560Z,51.99
2023-04-08T00:54:46.506Z,52.11
2023-04-08T00:57:13.620Z,52.07
2023-04-08T00:59:41.758Z,52.31
2023-04-08T01:02:45.941Z,52.33
2023-04-08T01:05:17.570Z,52.34
2023-04-08T01:07:48.534Z,52.49
2023-04-08T01:10:27.400Z,52.54
2023-04-08T01:13:02.080Z,52.45
2023-04-08T01:15:30.833Z,52.17
2023-04-08T01:17:59.757Z,52.48
2023-04-08T01:20:28.694Z,52.49
2023-04-08T01:23:00.847Z,52.48
2023-04-08T01:25:32.138Z,52.34
2023-04-08T01:28:02.095Z,52.26
2023-04-08T01:30:30.549Z,52.11
2023-04-08T01:32:59.750Z,52.05
2023-04-08T01:35:26.994Z,52.45
2023-04-08T01:37:56.201Z,52.07
2023-04-08T01:40:23.062Z,52.18
2023-04-08T01:42:54.032Z,52.32
2023-04-08T01:45:21.409Z,52.33
2023-04-08T01:47:49.563Z,52.31
2023-04-08T01:50:17.393Z,52.43
2023-04-08T01:52:46.513Z,52.36
2023-04-08T01:55:14.937Z,52.58
2023-04-08T01:57:48.252Z,52.31
2023-04-08T02:00:20.427Z,52.47
2023-04-08T02:02:47.910Z,52.54
2023-04-08T02:05:15.594Z,52.49
2023-04-08T02:07:42.600Z,52.46
2023-04-08T02:10:10.007Z,52.62
2023-04-08T02:12:37.284Z,52.76
2023-04-08T02:15:09.670Z,52.58
2023-04-08T02:17:47.171Z,52.74
2023-04-08T02:20:35.427Z,52.75
2023-04-08T02:23:29.394Z,52.71
2023-04-08T02:25:57.222Z,52.62
2023-04-08T02:28:28.407Z,52.57
2023-04-08T02:30:57.443Z,52.65
2023-04-08T02:33:24.977Z,52.84
2023-04-08T02:35:54.978Z,52.75
2023-04-08T02:38:23.889Z,52.23
2023-04-08T02:40:53.468Z,52.15
2023-04-08T02:43:20.257Z,52.38
2023-04-08T02:45:47.238Z,52.57
2023-04-08T02:48:15.305Z,52.49
2023-04-08T02:50:42.129Z,52.24
2023-04-08T02:53:09.653Z,52.33
2023-04-08T02:55:37.846Z,52.38
2023-04-08T02:58:04.695Z,52.42
2023-04-08T03:00:31.755Z,52.44
2023-04-08T03:02:58.669Z,52.35
2023-04-08T03:05:26.627Z,52.61
2023-04-08T03:07:53.461Z,52.52
2023-04-08T03:10:20.434Z,52.35
2023-04-08T03:12:47.258Z,52.46
2023-04-08T03:15:15.245Z,52.46
2023-04-08T03:17:42.143Z,52.33
2023-04-08T03:20:10.042Z,52.48
2023-04-08T03:22:37.071Z,52.41
2023-04-08T03:25:04.397Z,52.60
2023-04-08T03:27:31.240Z,52.52
2023-04-08T03:29:58.695Z,52.42
2023-04-08T03:32:25.794Z,52.34
2023-04-08T03:34:52.688Z,52.31
2023-04-08T03:37:19.612Z,52.39
2023-04-08T03:39:46.654Z,52.29
2023-04-08T03:42:13.514Z,52.01
2023-04-08T03:44:40.565Z,52.05
2023-04-08T03:47:07.373Z,52.19
2023-04-08T03:49:34.221Z,52.33
2023-04-08T03:52:01.043Z,52.19
2023-04-08T03:54:27.889Z,52.12
2023-04-08T03:56:55.015Z,52.36
2023-04-08T03:59:22.126Z,52.49
2023-04-08T04:01:48.967Z,52.27
2023-04-08T04:04:16.366Z,52.42
2023-04-08T04:06:43.312Z,52.58
2023-04-08T04:09:11.093Z,52.58
2023-04-08T04:11:37.871Z,52.48
2023-04-08T04:14:04.639Z,52.53
2023-04-08T04:16:32.977Z,52.46
2023-04-08T04:19:00.331Z,52.63
2023-04-08T04:21:27.361Z,52.73
2023-04-08T04:23:54.276Z,52.83
2023-04-08T04:26:21.152Z,52.92
2023-04-08T04:28:48.138Z,52.66
2023-04-08T04:31:23.613Z,52.83
2023-04-08T04:33:50.502Z,52.70
2023-04-08T04:36:17.475Z,53.06
2023-04-08T04:38:44.588Z,52.91
2023-04-08T04:41:11.692Z,52.81
2023-04-08T04:43:38.823Z,52.85
2023-04-08T04:46:08.841Z,52.80
2023-04-08T04:48:36.277Z,52.61
2023-04-08T04:51:03.572Z,52.75
2023-04-08T04:53:33.528Z,52.83
2023-04-08T04:56:01.687Z,52.53
2023-04-08T04:58:29.151Z,52.61
2023-04-08T05:00:56.557Z,52.85
2023-04-08T05:03:23.618Z,52.82
2023-04-08T05:05:54.531Z,53.00
2023-04-08T05:08:22.088Z,52.96
2023-04-08T05:10:51.545Z,52.79
2023-04-08T05:13:18.873Z,52.77
2023-04-08T05:15:45.756Z,52.63
2023-04-08T05:18:12.797Z,52.88
2023-04-08T05:20:39.589Z,52.47
2023-04-08T05:23:07.619Z,52.76
2023-04-08T05:25:34.607Z,52.81
2023-04-08T05:28:01.479Z,52.76
2023-04-08T05:30:28.376Z,52.61
2023-04-08T05:32:56.576Z,52.87
2023-04-08T05:35:24.771Z,52.69
2023-04-08T05:37:51.581Z,52.83
2023-04-08T05:40:18.475Z,53.09
2023-04-08T05:42:45.320Z,53.07
2023-04-08T05:45:12.161Z,53.20
2023-04-08T05:47:39.101Z,53.25
2023-04-08T05:50:06.865Z,53.16
2023-04-08T05:52:33.685Z,53.12
2023-04-08T05:55:00.609Z,53.17
2023-04-08T05:57:27.376Z,53.09
2023-04-08T05:59:54.156Z,53.13
2023-04-08T06:02:21.164Z,53.45
2023-04-08T06:04:48.123Z,53.30
2023-04-08T06:07:15.370Z,53.09
2023-04-08T06:09:43.281Z,53.14
2023-04-08T06:12:11.769Z,52.99
2023-04-08T06:14:38.537Z,53.01
2023-04-08T06:17:05.515Z,52.92
2023-04-08T06:19:32.410Z,52.80
2023-04-08T06:21:59.342Z,53.11
2023-04-08T06:24:29.632Z,52.78
2023-04-08T06:26:56.870Z,52.67
2023-04-08T06:29:24.079Z,52.63
2023-04-08T06:31:51.307Z,52.65
2023-04-08T06:34:18.156Z,52.71
2023-04-08T06:36:44.998Z,52.75
2023-04-08T06:39:11.903Z,52.75
2023-04-08T06:41:38.709Z,52.88
2023-04-08T06:44:19.470Z,52.84
2023-04-08T06:46:46.670Z,52.81
2023-04-08T06:49:13.515Z,52.89
2023-04-08T06:51:40.788Z,52.62
2023-04-08T06:54:10.010Z,52.91
2023-04-08T06:56:37.550Z,52.73
2023-04-08T06:59:07.301Z,52.69
2023-04-08T07:01:34.162Z,52.61
2023-04-08T07:04:02.392Z,52.81
2023-04-08T07:06:29.408Z,52.85
2023-04-08T07:08:56.335Z,52.59
2023-04-08T07:11:23.153Z,52.65
2023-04-08T07:13:49.966Z,52.55
2023-04-08T07:16:16.789Z,52.72
2023-04-08T07:18:43.945Z,52.70
2023-04-08T07:21:10.785Z,52.80
2023-04-08T07:23:37.589Z,52.51
2023-04-08T07:26:07.508Z,52.50
2023-04-08T07:28:34.271Z,52.34
2023-04-08T07:31:17.872Z,52.33
2023-04-08T07:33:45.727Z,52.24
2023-04-08T07:36:13.806Z,52.20
2023-04-08T07:38:40.951Z,52.18
2023-04-08T07:41:07.853Z,52.17
2023-04-08T07:43:36.238Z,52.10
2023-04-08T07:46:04.691Z,52.05
2023-04-08T07:48:32.593Z,52.04
2023-04-08T07:51:10.194Z,52.19
2023-04-08T07:53:39.534Z,51.99
2023-04-08T07:56:14.846Z,52.15
2023-04-08T07:58:44.990Z,52.16
2023-04-08T08:01:18.895Z,52.19
2023-04-08T08:03:47.568Z,51.94
2023-04-08T08:06:15.245Z,52.06
2023-04-08T08:08:42.247Z,52.07
2023-04-08T08:11:09.421Z,51.75
2023-04-08T08:13:36.396Z,51.90
2023-04-08T08:16:03.997Z,51.85
2023-04-08T08:18:31.082Z,51.76
2023-04-08T08:20:57.939Z,51.82
2023-04-08T08:23:24.891Z,51.76
2023-04-08T08:26:06.765Z,51.85
2023-04-08T08:28:33.944Z,51.69
2023-04-08T08:31:00.972Z,51.53
2023-04-08T08:33:28.043Z,51.37
2023-04-08T08:35:55.892Z,51.41
2023-04-08T08:38:22.712Z,51.36
2023-04-08T08:40:58.419Z,51.44
2023-04-08T08:43:25.995Z,51.02
2023-04-08T08:45:56.346Z,51.21
2023-04-08T08:48:23.289Z,51.07
2023-04-08T08:50:50.323Z,51.07
2023-04-08T08:53:17.627Z,50.60
2023-04-08T08:56:15.703Z,50.72
2023-04-08T08:58:31.677Z,50.39
2023-04-08T09:00:58.480Z,50.09
2023-04-08T09:03:27.916Z,50.06
2023-04-08T09:05:57.973Z,50.17
2023-04-08T09:08:32.348Z,49.74
2023-04-08T09:11:21.595Z,49.63
2023-04-08T09:13:48.941Z,49.36
2023-04-08T09:16:18.641Z,49.46
2023-04-08T09:18:48.810Z,49.50
2023-04-08T09:21:17.642Z,48.99
2023-04-08T09:23:49.734Z,48.63
2023-04-08T09:26:22.099Z,48.90
2023-04-08T09:29:00.257Z,48.66
2023-04-08T09:31:31.854Z,48.25
2023-04-08T09:34:04.584Z,48.13
2023-04-08T09:36:32.554Z,47.94
2023-04-08T09:38:59.398Z,47.62
2023-04-08T09:41:28.539Z,46.96
2023-04-08T09:43:56.863Z,46.76
2023-04-08T09:46:51.618Z,46.20
2023-04-08T09:49:47.656Z,46.31
2023-04-08T09:52:26.138Z,45.46
2023-04-08T09:55:14.431Z,45.52
2023-04-08T09:57:56.564Z,44.88
2023-04-08T10:00:31.438Z,44.67
2023-04-08T10:03:31.894Z,44.14
2023-04-08T10:06:01.597Z,44.04
2023-04-08T10:08:28.774Z,44.09
2023-04-08T10:10:56.273Z,43.52
2023-04-08T10:13:24.192Z,42.97
2023-04-08T10:15:51.066Z,42.99
2023-04-08T10:18:21.768Z,42.72
2023-04-08T10:20:49.375Z,42.70
2023-04-08T10:23:20.940Z,42.11
2023-04-08T10:25:49.374Z,41.53
2023-04-08T10:28:18.729Z,41.57
2023-04-08T10:30:53.140Z,41.58
2023-04-08T10:33:24.382Z,41.32
2023-04-08T10:36:12.069Z,41.52
2023-04-08T10:38:39.936Z,40.60
2023-04-08T10:41:06.886Z,40.32
2023-04-08T10:43:37.354Z,39.85
2023-04-08T10:46:05.030Z,40.06
2023-04-08T10:48:32.384Z,40.13
2023-04-08T10:51:01.839Z,40.28
2023-04-08T10:53:34.799Z,40.31
2023-04-08T10:56:08.159Z,40.33
2023-04-08T10:58:36.758Z,40.13
2023-04-08T11:01:07.622Z,39.80
2023-04-08T11:03:36.740Z,39.55
2023-04-08T11:06:04.323Z,39.76
2023-04-08T11:08:36.528Z,39.48
2023-04-08T11:11:05.429Z,39.62
2023-04-08T11:13:33.629Z,39.72
2023-04-08T11:16:00.750Z,39.58
2023-04-08T11:18:28.550Z,39.63
2023-04-08T11:20:55.902Z,39.22
2023-04-08T11:23:25.987Z,39.41
2023-04-08T11:25:55.597Z,39.66
2023-04-08T11:28:22.679Z,40.02
2023-04-08T11:30:50.361Z,40.19
2023-04-08T11:33:17.403Z,40.29
2023-04-08T11:35:44.708Z,40.48
2023-04-08T11:38:12.236Z,40.68
2023-04-08T11:40:39.110Z,40.80
2023-04-08T11:43:15.355Z,40.57
2023-04-08T11:45:42.598Z,40.32
2023-04-08T11:48:12.159Z,40.05
2023-04-08T11:50:38.972Z,40.27
2023-04-08T11:53:20.542Z,40.32
2023-04-08T11:55:48.674Z,40.44
2023-04-08T11:58:16.315Z,40.42
2023-04-08T12:00:43.975Z,40.03
2023-04-08T12:03:11.723Z,40.04
2023-04-08T12:05:38.857Z,39.33
2023-04-08T12:08:05.770Z,38.81
2023-04-08T12:10:33.000Z,39.04
2023-04-08T12:12:59.807Z,39.00
2023-04-08T12:15:26.630Z,39.25
2023-04-08T12:17:53.454Z,39.15
2023-04-08T12:20:20.311Z,38.86
2023-04-08T12:22:47.142Z,38.88
2023-04-08T12:25:13.923Z,38.72
2023-04-08T12:27:40.779Z,39.00
2023-04-08T12:30:08.609Z,38.84
2023-04-08T12:32:35.484Z,38.87
2023-04-08T12:35:02.657Z,39.03
2023-04-08T12:37:29.473Z,39.12
2023-04-08T12:39:56.348Z,39.34
2023-04-08T12:42:23.146Z,39.49
2023-04-08T12:44:49.966Z,39.33
2023-04-08T12:47:17.281Z,39.21
2023-04-08T12:49:49.249Z,39.41
2023-04-08T12:52:17.515Z,39.53
2023-04-08T12:54:44.819Z,39.61
2023-04-08T12:57:12.395Z,39.38
2023-04-08T12:59:40.025Z,39.58
2023-04-08T13:02:07.946Z,39.66
2023-04-08T13:04:35.564Z,39.55
2023-04-08T13:07:04.253Z,39.44
2023-04-08T13:09:31.321Z,39.14
2023-04-08T13:11:58.231Z,39.39
2023-04-08T13:14:25.589Z,39.50
2023-04-08T13:16:52.583Z,39.47
2023-04-08T13:19:19.471Z,39.64
2023-04-08T13:21:46.482Z,38.89
2023-04-08T13:24:13.413Z,39.10
2023-04-08T13:26:40.432Z,39.15
2023-04-08T13:29:07.381Z,39.15
2023-04-08T13:31:34.243Z,39.20
2023-04-08T13:34:01.183Z,38.87
2023-04-08T13:36:29.031Z,38.86
2023-04-08T13:38:56.627Z,38.64
2023-04-08T13:41:23.456Z,38.78
2023-04-08T13:43:50.371Z,38.06
2023-04-08T13:46:18.096Z,37.95
2023-04-08T13:48:45.859Z,38.07
2023-04-08T13:51:12.686Z,38.13
2023-04-08T13:53:39.479Z,37.66
2023-04-08T13:56:06.713Z,37.16
2023-04-08T13:58:33.594Z,36.96
2023-04-08T14:01:00.427Z,36.84
2023-04-08T14:03:27.917Z,36.82
2023-04-08T14:05:54.791Z,37.11
2023-04-08T14:08:25.196Z,37.14
2023-04-08T14:10:53.441Z,36.85
2023-04-08T14:13:20.747Z,36.92
2023-04-08T14:15:48.285Z,36.89
2023-04-08T14:18:17.828Z,36.72
2023-04-08T14:20:44.776Z,36.36
2023-04-08T14:23:13.415Z,36.65
2023-04-08T14:25:49.548Z,36.20
2023-04-08T14:28:20.008Z,36.55
2023-04-08T14:30:50.309Z,36.29
2023-04-08T14:33:27.650Z,36.08
2023-04-08T14:35:58.081Z,36.26
2023-04-08T14:38:28.627Z,36.40
2023-04-08T14:41:03.752Z,36.17
2023-04-08T14:43:31.750Z,36.49
2023-04-08T14:45:58.703Z,36.73
2023-04-08T14:48:26.419Z,37.36
2023-04-08T14:50:53.246Z,37.47
2023-04-08T14:53:20.226Z,37.67
2023-04-08T14:55:47.036Z,37.64
2023-04-08T14:58:13.980Z,37.04
2023-04-08T15:00:44.294Z,36.51
2023-04-08T15:03:11.484Z,36.25
2023-04-08T15:05:38.715Z,35.79
2023-04-08T15:08:05.862Z,35.82
2023-04-08T15:10:32.669Z,34.77
2023-04-08T15:12:59.517Z,34.04
2023-04-08T15:15:26.731Z,33.21
2023-04-08T15:17:53.732Z,33.04
2023-04-08T15:20:20.508Z,32.92
2023-04-08T15:22:47.677Z,32.79
2023-04-08T15:25:14.514Z,32.41
2023-04-08T15:27:42.082Z,32.93
2023-04-08T15:30:11.261Z,32.89
2023-04-08T15:32:39.279Z,32.84
2023-04-08T15:35:06.966Z,33.21
2023-04-08T15:37:33.790Z,33.30
2023-04-08T15:40:00.863Z,33.63
2023-04-08T15:42:27.693Z,33.91
2023-04-08T15:44:54.508Z,33.98
2023-04-08T15:47:21.843Z,34.42
2023-04-08T15:49:48.816Z,34.45
2023-04-08T15:52:16.681Z,34.56
2023-04-08T15:54:43.517Z,34.71
2023-04-08T15:57:10.319Z,34.95
2023-04-08T15:59:37.555Z,34.85
2023-04-08T16:02:04.515Z,34.81
2023-04-08T16:04:31.602Z,34.87
2023-04-08T16:06:58.489Z,35.16
2023-04-08T16:09:26.975Z,35.16
2023-04-08T16:11:53.904Z,35.38
2023-04-08T16:14:20.791Z,35.14
2023-04-08T16:16:47.708Z,35.54
2023-04-08T16:19:14.540Z,35.79
2023-04-08T16:21:41.488Z,35.69
2023-04-08T16:24:08.498Z,35.89
2023-04-08T16:26:35.329Z,36.08
2023-04-08T16:29:02.379Z,36.19
2023-04-08T16:33:56.921Z,36.25
2023-04-08T16:36:23.773Z,36.39
2023-04-08T16:38:50.617Z,36.45
2023-04-08T16:41:17.460Z,36.53
2023-04-08T16:43:44.296Z,36.83
2023-04-08T16:46:16.996Z,36.68
2023-04-08T16:48:44.890Z,36.61
2023-04-08T16:51:11.778Z,36.62
2023-04-08T16:53:38.582Z,36.97
2023-04-08T16:56:12.663Z,37.06
2023-04-08T16:58:39.513Z,36.92
2023-04-08T17:01:10.575Z,37.03
2023-04-08T17:03:37.856Z,37.16
2023-04-08T17:06:13.456Z,37.18
2023-04-08T17:08:43.629Z,37.33
2023-04-08T17:11:13.330Z,37.09
2023-04-08T17:13:42.826Z,37.30
2023-04-08T17:16:15.769Z,37.53
2023-04-08T17:18:43.735Z,37.45
2023-04-08T17:21:12.226Z,37.63
2023-04-08T17:23:39.094Z,37.79
2023-04-08T17:26:07.646Z,37.67
2023-04-08T17:28:35.568Z,38.12
2023-04-08T17:31:02.574Z,37.96
2023-04-08T17:33:29.536Z,38.20
2023-04-08T17:35:56.373Z,38.27
2023-04-08T17:38:23.377Z,38.39
2023-04-08T17:40:50.555Z,38.40
2023-04-08T17:43:17.886Z,38.30
2023-04-08T17:45:44.945Z,38.41
2023-04-08T17:48:11.756Z,38.52
2023-04-08T17:50:38.611Z,38.58
2023-04-08T17:53:05.423Z,38.72
2023-04-08T17:55:32.244Z,38.53
2023-04-08T17:57:59.074Z,38.82
2023-04-08T18:00:26.495Z,38.90
2023-04-08T18:02:53.775Z,39.23
2023-04-08T18:05:21.563Z,39.21
2023-04-08T18:07:48.422Z,39.18
2023-04-08T18:10:15.419Z,39.37
2023-04-08T18:12:42.285Z,39.35
2023-04-08T18:15:09.656Z,39.47
2023-04-08T18:17:36.536Z,39.66
2023-04-08T18:20:04.144Z,39.70
2023-04-08T18:22:30.992Z,39.85
2023-04-08T18:24:57.834Z,39.79
2023-04-08T18:27:24.652Z,39.83
2023-04-08T18:29:53.455Z,40.04
2023-04-08T18:32:20.403Z,40.01
2023-04-08T18:34:47.256Z,40.02
2023-04-08T18:37:16.761Z,39.97
2023-04-08T18:39:43.683Z,40.11
2023-04-08T18:42:10.518Z,40.12
2023-04-08T18:44:37.819Z,40.26
2023-04-08T18:47:04.924Z,40.14
2023-04-08T18:49:33.897Z,40.38
2023-04-08T18:52:02.929Z,40.40
2023-04-08T18:54:30.604Z,40.50
2023-04-08T18:56:57.874Z,40.65
2023-04-08T18:59:24.799Z,40.54
2023-04-08T19:01:51.685Z,40.76
2023-04-08T19:04:18.751Z,40.79
2023-04-08T19:06:45.815Z,40.91
2023-04-08T19:09:14.236Z,40.70
2023-04-08T19:11:41.450Z,40.98
2023-04-08T19:14:08.234Z,41.09
2023-04-08T19:16:35.411Z,40.98
2023-04-08T19:19:02.327Z,40.91
2023-04-08T19:21:31.610Z,41.21
2023-04-08T19:23:58.438Z,41.04
2023-04-08T19:26:25.265Z,41.10
2023-04-08T19:28:52.090Z,40.92
2023-04-08T19:31:20.473Z,41.05
2023-04-08T19:33:47.437Z,41.21
2023-04-08T19:36:14.276Z,41.07
2023-04-08T19:38:41.110Z,41.13
2023-04-08T19:41:08.129Z,41.08
2023-04-08T19:43:35.308Z,41.36
2023-04-08T19:46:02.435Z,41.41
2023-04-08T19:48:29.583Z,41.38
2023-04-08T19:50:56.490Z,41.39
2023-04-08T19:53:23.286Z,41.50
2023-04-08T19:55:50.179Z,41.45
2023-04-08T19:58:17.587Z,41.57
2023-04-08T20:00:44.537Z,41.57
2023-04-08T20:03:11.572Z,41.74
2023-04-08T20:05:38.550Z,41.56
2023-04-08T20:08:05.385Z,41.83
2023-04-08T20:10:32.205Z,41.77
2023-04-08T20:12:59.055Z,41.86
2023-04-08T20:15:26.120Z,41.72
2023-04-08T20:17:53.455Z,41.96
2023-04-08T20:20:20.770Z,41.90
2023-04-08T20:22:47.572Z,41.90
2023-04-08T20:25:14.673Z,42.06
2023-04-08T20:27:41.756Z,42.14
2023-04-08T20:30:09.342Z,42.02
2023-04-08T20:32:36.313Z,42.03
2023-04-08T20:35:04.406Z,42.09
2023-04-08T20:37:32.382Z,42.18
2023-04-08T20:39:59.201Z,42.05
2023-04-08T20:42:26.565Z,41.98
2023-04-08T20:44:53.749Z,41.86
2023-04-08T20:47:20.885Z,42.05
2023-04-08T20:49:48.141Z,42.05
2023-04-08T20:52:15.002Z,42.10
2023-04-08T20:54:41.860Z,42.13
2023-04-08T20:57:08.650Z,42.07
2023-04-08T20:59:35.483Z,42.10
2023-04-08T21:02:03.373Z,42.34
2023-04-08T21:04:30.321Z,42.47
2023-04-08T21:06:57.192Z,42.70
2023-04-08T21:09:24.034Z,42.58
2023-04-08T21:11:50.887Z,42.77
2023-04-08T21:14:17.733Z,42.64
2023-04-08T21:16:44.589Z,42.90
2023-04-08T21:19:11.444Z,42.56
2023-04-08T21:21:38.273Z,42.85
2023-04-08T21:24:06.966Z,42.90
2023-04-08T21:26:33.779Z,43.01
2023-04-08T21:29:00.588Z,42.93
2023-04-08T21:31:27.447Z,42.97
2023-04-08T21:33:54.522Z,42.89
2023-04-08T21:36:21.510Z,43.05
2023-04-08T21:38:48.716Z,42.89
2023-04-08T21:41:15.528Z,43.02
2023-04-08T21:43:42.389Z,43.08
2023-04-08T21:46:09.182Z,43.14
2023-04-08T21:48:35.971Z,43.07
2023-04-08T21:51:02.836Z,43.22
2023-04-08T21:53:29.674Z,43.20
2023-04-08T21:55:56.570Z,43.26
2023-04-08T21:58:23.404Z,43.40
2023-04-08T22:00:50.678Z,43.34
2023-04-08T22:03:17.741Z,43.28
2023-04-08T22:05:44.635Z,43.28
2023-04-08T22:08:11.571Z,43.48
2023-04-08T22:10:38.357Z,43.58
2023-04-08T22:13:05.199Z,43.31
2023-04-08T22:15:31.986Z,43.45
2023-04-08T22:17:58.953Z,43.49
2023-04-08T22:20:25.852Z,43.64
2023-04-08T22:22:53.005Z,43.65
2023-04-08T22:25:19.850Z,43.60
2023-04-08T22:27:46.715Z,43.68
2023-04-08T22:30:13.829Z,43.70
2023-04-08T22:32:40.755Z,43.64
2023-04-08T22:35:08.165Z,43.60
2023-04-08T22:37:35.426Z,43.58
2023-04-08T22:40:03.639Z,43.42
2023-04-08T22:42:30.634Z,43.68
2023-04-08T22:44:57.460Z,43.69
2023-04-08T22:47:24.295Z,43.87
2023-04-08T22:49:51.119Z,43.82
2023-04-08T22:52:17.949Z,43.84
2023-04-08T22:54:44.781Z,43.84
2023-04-08T22:57:11.644Z,43.99
2023-04-08T22:59:38.504Z,43.96
2023-04-08T23:02:05.453Z,43.95
2023-04-08T23:04:32.461Z,43.72
2023-04-08T23:06:59.254Z,43.76
2023-04-08T23:09:27.100Z,43.89
2023-04-08T23:11:53.930Z,43.92
2023-04-08T23:14:20.717Z,44.06
2023-04-08T23:16:47.524Z,44.02
2023-04-08T23:19:14.382Z,44.07
2023-04-08T23:21:41.157Z,44.12
2023-04-08T23:24:08.001Z,44.06
2023-04-08T23:26:34.800Z,44.27
2023-04-08T23:29:01.656Z,44.29
2023-04-08T23:31:28.518Z,44.06
2023-04-08T23:33:55.615Z,44.17
2023-04-08T23:36:22.430Z,44.31
2023-04-08T23:38:50.721Z,44.35
2023-04-08T23:41:17.866Z,44.38
2023-04-08T23:43:46.451Z,44.28
2023-04-08T23:46:13.373Z,44.40
2023-04-08T23:48:40.225Z,44.49
2023-04-08T23:51:07.094Z,44.66
2023-04-08T23:53:33.929Z,44.78
2023-04-08T23:56:08.063Z,44.65
2023-04-08T23:58:35.427Z,44.90
